sensor_id;sensor_type;location;lat;lon;timestamp;temperature;humidity
13496;DHT22;6820;49.374;8.452;2023-08-21T00:02:53;28.01;99.99
13496;DHT22;6820;49.374;8.452;2023-08-21T00:06:55;27.98;99.99
13496;DHT22;6820;49.374;8.452;2023-08-21T00:10:57;27.98;99.99
13496;DHT22;6820;49.374;8.452;2023-08-21T00:14:58;27.93;99.99
13496;DHT22;6820;49.374;8.452;2023-08-21T00:19:00;27.90;99.99
13496;DHT22;6820;49.374;8.452;2023-08-21T00:23:02;27.86;99.99
13496;DHT22;6820;49.374;8.452;2023-08-21T00:27:03;27.77;99.99
13496;DHT22;6820;49.374;8.452;2023-08-21T00:31:06;27.71;99.99
13496;DHT22;6820;49.374;8.452;2023-08-21T00:35:07;27.68;99.99
13496;DHT22;6820;49.374;8.452;2023-08-21T00:39:09;27.61;99.99
13496;DHT22;6820;49.374;8.452;2023-08-21T00:43:11;27.58;99.99
13496;DHT22;6820;49.374;8.452;2023-08-21T00:47:12;27.48;99.99
13496;DHT22;6820;49.374;8.452;2023-08-21T00:51:14;27.33;99.99
13496;DHT22;6820;49.374;8.452;2023-08-21T00:55:17;27.27;99.99
13496;DHT22;6820;49.374;8.452;2023-08-21T00:59:20;27.28;99.99
13496;DHT22;6820;49.374;8.452;2023-08-21T01:03:24;27.30;99.99
13496;DHT22;6820;49.374;8.452;2023-08-21T01:07:26;27.23;99.99
13496;DHT22;6820;49.374;8.452;2023-08-21T01:15:38;27.15;99.99
13496;DHT22;6820;49.374;8.452;2023-08-21T01:19:43;27.15;99.99
13496;DHT22;6820;49.374;8.452;2023-08-21T01:23:47;27.01;99.99
13496;DHT22;6820;49.374;8.452;2023-08-21T01:27:49;26.88;99.99
13496;DHT22;6820;49.374;8.452;2023-08-21T01:32:11;26.78;99.99
13496;DHT22;6820;49.374;8.452;2023-08-21T01:36:17;26.83;99.99
13496;DHT22;6820;49.374;8.452;2023-08-21T01:40:23;26.83;99.99
13496;DHT22;6820;49.374;8.452;2023-08-21T01:44:25;26.83;99.99
13496;DHT22;6820;49.374;8.452;2023-08-21T01:48:28;26.79;99.99
13496;DHT22;6820;49.374;8.452;2023-08-21T01:52:30;26.68;99.99
13496;DHT22;6820;49.374;8.452;2023-08-21T01:56:32;26.65;99.99
13496;DHT22;6820;49.374;8.452;2023-08-21T02:00:34;26.56;99.99
13496;DHT22;6820;49.374;8.452;2023-08-21T02:04:35;26.51;99.99
13496;DHT22;6820;49.374;8.452;2023-08-21T02:08:37;26.44;99.99
13496;DHT22;6820;49.374;8.452;2023-08-21T02:12:39;26.34;99.99
13496;DHT22;6820;49.374;8.452;2023-08-21T02:16:43;26.17;99.99
13496;DHT22;6820;49.374;8.452;2023-08-21T02:20:44;26.17;99.99
13496;DHT22;6820;49.374;8.452;2023-08-21T02:24:46;26.03;99.99
13496;DHT22;6820;49.374;8.452;2023-08-21T02:28:47;26.04;99.99
13496;DHT22;6820;49.374;8.452;2023-08-21T02:32:49;25.98;99.99
13496;DHT22;6820;49.374;8.452;2023-08-21T02:36:51;25.96;99.99
13496;DHT22;6820;49.374;8.452;2023-08-21T02:40:53;26.04;99.99
13496;DHT22;6820;49.374;8.452;2023-08-21T02:44:55;25.97;99.99
13496;DHT22;6820;49.374;8.452;2023-08-21T02:48:58;25.93;99.99
13496;DHT22;6820;49.374;8.452;2023-08-21T02:53:00;25.86;99.99
13496;DHT22;6820;49.374;8.452;2023-08-21T02:57:02;25.91;99.99
13496;DHT22;6820;49.374;8.452;2023-08-21T03:01:03;25.90;99.99
13496;DHT22;6820;49.374;8.452;2023-08-21T03:05:05;25.83;99.99
13496;DHT22;6820;49.374;8.452;2023-08-21T03:09:09;25.78;99.99
13496;DHT22;6820;49.374;8.452;2023-08-21T03:13:11;25.67;99.99
13496;DHT22;6820;49.374;8.452;2023-08-21T03:17:12;25.69;99.99
13496;DHT22;6820;49.374;8.452;2023-08-21T03:21:14;25.66;99.99
13496;DHT22;6820;49.374;8.452;2023-08-21T03:25:16;25.69;99.99
13496;DHT22;6820;49.374;8.452;2023-08-21T03:29:18;25.66;99.99
13496;DHT22;6820;49.374;8.452;2023-08-21T03:33:20;25.60;99.99
13496;DHT22;6820;49.374;8.452;2023-08-21T03:37:22;25.54;99.99
13496;DHT22;6820;49.374;8.452;2023-08-21T03:41:23;25.51;99.99
13496;DHT22;6820;49.374;8.452;2023-08-21T03:45:25;25.51;99.99
13496;DHT22;6820;49.374;8.452;2023-08-21T03:49:28;25.42;99.99
13496;DHT22;6820;49.374;8.452;2023-08-21T03:53:30;25.36;99.99
13496;DHT22;6820;49.374;8.452;2023-08-21T03:57:34;25.38;99.99
13496;DHT22;6820;49.374;8.452;2023-08-21T04:01:35;25.30;99.99
13496;DHT22;6820;49.374;8.452;2023-08-21T04:05:37;25.30;99.99
13496;DHT22;6820;49.374;8.452;2023-08-21T04:09:39;25.22;99.99
13496;DHT22;6820;49.374;8.452;2023-08-21T04:13:40;25.22;99.99
13496;DHT22;6820;49.374;8.452;2023-08-21T04:17:42;25.20;99.99
13496;DHT22;6820;49.374;8.452;2023-08-21T04:21:43;25.17;99.99
13496;DHT22;6820;49.374;8.452;2023-08-21T04:25:45;25.16;99.99
13496;DHT22;6820;49.374;8.452;2023-08-21T04:29:47;25.09;99.99
13496;DHT22;6820;49.374;8.452;2023-08-21T04:33:48;25.12;99.99
13496;DHT22;6820;49.374;8.452;2023-08-21T04:37:50;25.14;99.99
13496;DHT22;6820;49.374;8.452;2023-08-21T04:41:55;25.08;99.99
13496;DHT22;6820;49.374;8.452;2023-08-21T04:45:59;25.02;99.99
13496;DHT22;6820;49.374;8.452;2023-08-21T04:50:03;24.99;99.99
13496;DHT22;6820;49.374;8.452;2023-08-21T04:54:05;24.98;99.99
13496;DHT22;6820;49.374;8.452;2023-08-21T04:58:07;24.92;99.99
13496;DHT22;6820;49.374;8.452;2023-08-21T05:02:10;24.87;99.99
13496;DHT22;6820;49.374;8.452;2023-08-21T05:06:13;24.84;99.99
13496;DHT22;6820;49.374;8.452;2023-08-21T05:10:16;24.82;99.99
13496;DHT22;6820;49.374;8.452;2023-08-21T05:14:18;24.84;99.99
13496;DHT22;6820;49.374;8.452;2023-08-21T05:18:21;24.80;99.99
13496;DHT22;6820;49.374;8.452;2023-08-21T05:22:23;24.79;99.99
13496;DHT22;6820;49.374;8.452;2023-08-21T05:26:26;24.79;99.99
13496;DHT22;6820;49.374;8.452;2023-08-21T05:30:28;24.75;99.99
13496;DHT22;6820;49.374;8.452;2023-08-21T05:34:30;24.79;99.99
13496;DHT22;6820;49.374;8.452;2023-08-21T05:38:32;24.79;99.99
13496;DHT22;6820;49.374;8.452;2023-08-21T05:42:34;24.86;99.99
13496;DHT22;6820;49.374;8.452;2023-08-21T05:46:35;24.98;99.99
13496;DHT22;6820;49.374;8.452;2023-08-21T05:50:37;25.04;99.99
13496;DHT22;6820;49.374;8.452;2023-08-21T05:54:39;25.08;99.99
13496;DHT22;6820;49.374;8.452;2023-08-21T05:58:41;25.16;99.99
13496;DHT22;6820;49.374;8.452;2023-08-21T06:02:44;25.17;99.99
13496;DHT22;6820;49.374;8.452;2023-08-21T06:07:02;25.23;99.99
13496;DHT22;6820;49.374;8.452;2023-08-21T06:11:04;25.26;99.99
13496;DHT22;6820;49.374;8.452;2023-08-21T06:15:07;25.35;99.99
13496;DHT22;6820;49.374;8.452;2023-08-21T06:19:12;25.36;99.99
13496;DHT22;6820;49.374;8.452;2023-08-21T06:23:14;25.42;99.99
13496;DHT22;6820;49.374;8.452;2023-08-21T06:27:16;25.42;99.99
13496;DHT22;6820;49.374;8.452;2023-08-21T06:31:17;25.46;99.99
13496;DHT22;6820;49.374;8.452;2023-08-21T06:35:19;25.49;99.99
13496;DHT22;6820;49.374;8.452;2023-08-21T06:39:21;25.53;99.99
13496;DHT22;6820;49.374;8.452;2023-08-21T06:43:24;25.67;99.99
13496;DHT22;6820;49.374;8.452;2023-08-21T06:47:28;25.76;99.99
13496;DHT22;6820;49.374;8.452;2023-08-21T06:51:30;25.79;99.99
13496;DHT22;6820;49.374;8.452;2023-08-21T06:55:31;25.83;99.99
13496;DHT22;6820;49.374;8.452;2023-08-21T06:59:33;25.85;99.99
13496;DHT22;6820;49.374;8.452;2023-08-21T07:03:37;25.94;99.99
13496;DHT22;6820;49.374;8.452;2023-08-21T07:07:39;26.00;99.99
13496;DHT22;6820;49.374;8.452;2023-08-21T07:11:40;26.04;99.99
13496;DHT22;6820;49.374;8.452;2023-08-21T07:15:42;26.12;99.99
13496;DHT22;6820;49.374;8.452;2023-08-21T07:19:44;26.27;99.99
13496;DHT22;6820;49.374;8.452;2023-08-21T07:23:48;26.35;99.99
13496;DHT22;6820;49.374;8.452;2023-08-21T07:27:49;26.39;99.99
13496;DHT22;6820;49.374;8.452;2023-08-21T07:31:51;26.50;99.99
13496;DHT22;6820;49.374;8.452;2023-08-21T07:35:56;26.57;99.99
13496;DHT22;6820;49.374;8.452;2023-08-21T07:40:07;26.65;99.99
13496;DHT22;6820;49.374;8.452;2023-08-21T07:44:09;26.72;99.99
13496;DHT22;6820;49.374;8.452;2023-08-21T07:48:11;26.81;99.99
13496;DHT22;6820;49.374;8.452;2023-08-21T07:52:15;26.93;99.99
13496;DHT22;6820;49.374;8.452;2023-08-21T07:56:17;27.02;99.99
13496;DHT22;6820;49.374;8.452;2023-08-21T08:00:19;27.08;99.99
13496;DHT22;6820;49.374;8.452;2023-08-21T08:04:21;27.18;99.99
13496;DHT22;6820;49.374;8.452;2023-08-21T08:08:23;27.30;99.99
13496;DHT22;6820;49.374;8.452;2023-08-21T08:12:24;27.43;99.99
13496;DHT22;6820;49.374;8.452;2023-08-21T08:16:26;27.52;99.99
13496;DHT22;6820;49.374;8.452;2023-08-21T08:20:28;27.59;99.99
13496;DHT22;6820;49.374;8.452;2023-08-21T08:24:31;27.72;99.99
13496;DHT22;6820;49.374;8.452;2023-08-21T08:28:32;27.86;99.99
13496;DHT22;6820;49.374;8.452;2023-08-21T08:32:34;27.96;99.99
13496;DHT22;6820;49.374;8.452;2023-08-21T08:36:36;28.08;99.99
13496;DHT22;6820;49.374;8.452;2023-08-21T08:40:42;28.14;99.99
13496;DHT22;6820;49.374;8.452;2023-08-21T08:44:45;28.14;99.99
13496;DHT22;6820;49.374;8.452;2023-08-21T08:48:48;28.25;99.99
13496;DHT22;6820;49.374;8.452;2023-08-21T08:52:50;28.40;99.99
13496;DHT22;6820;49.374;8.452;2023-08-21T08:56:53;28.48;99.99
13496;DHT22;6820;49.374;8.452;2023-08-21T09:00:55;28.52;99.99
13496;DHT22;6820;49.374;8.452;2023-08-21T09:04:57;28.62;99.99
13496;DHT22;6820;49.374;8.452;2023-08-21T09:08:59;28.74;99.99
13496;DHT22;6820;49.374;8.452;2023-08-21T09:13:01;28.85;99.99
13496;DHT22;6820;49.374;8.452;2023-08-21T09:17:09;28.98;99.99
13496;DHT22;6820;49.374;8.452;2023-08-21T09:21:11;29.10;99.99
13496;DHT22;6820;49.374;8.452;2023-08-21T09:25:13;29.23;99.99
13496;DHT22;6820;49.374;8.452;2023-08-21T09:29:15;29.32;99.99
13496;DHT22;6820;49.374;8.452;2023-08-21T09:33:17;29.39;99.99
13496;DHT22;6820;49.374;8.452;2023-08-21T09:37:27;29.51;99.99
13496;DHT22;6820;49.374;8.452;2023-08-21T09:41:33;29.63;99.99
13496;DHT22;6820;49.374;8.452;2023-08-21T09:45:34;29.79;99.99
13496;DHT22;6820;49.374;8.452;2023-08-21T09:49:37;29.95;99.99
13496;DHT22;6820;49.374;8.452;2023-08-21T09:53:40;30.04;99.99
13496;DHT22;6820;49.374;8.452;2023-08-21T09:57:42;30.16;99.99
13496;DHT22;6820;49.374;8.452;2023-08-21T10:01:44;30.28;99.99
13496;DHT22;6820;49.374;8.452;2023-08-21T10:05:48;30.42;99.99
13496;DHT22;6820;49.374;8.452;2023-08-21T10:09:50;30.59;99.99
13496;DHT22;6820;49.374;8.452;2023-08-21T10:13:52;30.68;99.99
13496;DHT22;6820;49.374;8.452;2023-08-21T10:17:55;30.79;99.99
13496;DHT22;6820;49.374;8.452;2023-08-21T10:21:57;30.82;99.99
13496;DHT22;6820;49.374;8.452;2023-08-21T10:26:01;30.90;99.99
13496;DHT22;6820;49.374;8.452;2023-08-21T10:30:13;30.98;99.99
13496;DHT22;6820;49.374;8.452;2023-08-21T10:34:16;31.04;99.99
13496;DHT22;6820;49.374;8.452;2023-08-21T10:38:20;31.19;99.99
13496;DHT22;6820;49.374;8.452;2023-08-21T10:42:36;31.30;99.99
13496;DHT22;6820;49.374;8.452;2023-08-21T10:46:49;31.40;99.99
13496;DHT22;6820;49.374;8.452;2023-08-21T10:50:52;31.49;99.99
13496;DHT22;6820;49.374;8.452;2023-08-21T10:54:54;31.57;99.99
13496;DHT22;6820;49.374;8.452;2023-08-21T10:58:57;31.72;99.99
13496;DHT22;6820;49.374;8.452;2023-08-21T11:02:58;31.82;99.99
13496;DHT22;6820;49.374;8.452;2023-08-21T11:07:00;31.88;99.99
13496;DHT22;6820;49.374;8.452;2023-08-21T11:11:02;31.92;99.99
13496;DHT22;6820;49.374;8.452;2023-08-21T11:15:06;32.05;99.99
13496;DHT22;6820;49.374;8.452;2023-08-21T11:19:08;32.14;99.99
13496;DHT22;6820;49.374;8.452;2023-08-21T11:23:09;32.29;99.99
13496;DHT22;6820;49.374;8.452;2023-08-21T11:27:11;32.35;99.99
13496;DHT22;6820;49.374;8.452;2023-08-21T11:31:15;32.41;99.99
13496;DHT22;6820;49.374;8.452;2023-08-21T11:35:17;32.51;99.99
13496;DHT22;6820;49.374;8.452;2023-08-21T11:39:19;32.61;99.99
13496;DHT22;6820;49.374;8.452;2023-08-21T11:43:21;32.71;99.99
13496;DHT22;6820;49.374;8.452;2023-08-21T11:47:23;32.87;99.99
13496;DHT22;6820;49.374;8.452;2023-08-21T11:51:25;33.00;99.99
13496;DHT22;6820;49.374;8.452;2023-08-21T11:55:26;33.17;99.99
13496;DHT22;6820;49.374;8.452;2023-08-21T11:59:29;33.24;99.99
13496;DHT22;6820;49.374;8.452;2023-08-21T12:03:35;33.43;99.99
13496;DHT22;6820;49.374;8.452;2023-08-21T12:07:38;33.53;99.99
13496;DHT22;6820;49.374;8.452;2023-08-21T12:11:40;33.68;99.99
13496;DHT22;6820;49.374;8.452;2023-08-21T12:15:42;33.78;99.99
13496;DHT22;6820;49.374;8.452;2023-08-21T12:19:43;33.93;99.99
13496;DHT22;6820;49.374;8.452;2023-08-21T12:23:45;34.14;99.99
13496;DHT22;6820;49.374;8.452;2023-08-21T12:27:47;34.14;99.99
13496;DHT22;6820;49.374;8.452;2023-08-21T12:32:01;34.38;99.99
13496;DHT22;6820;49.374;8.452;2023-08-21T12:36:04;34.60;99.99
13496;DHT22;6820;49.374;8.452;2023-08-21T12:40:06;34.23;99.99
13496;DHT22;6820;49.374;8.452;2023-08-21T12:44:08;33.84;99.99
13496;DHT22;6820;49.374;8.452;2023-08-21T12:48:10;33.57;99.99
13496;DHT22;6820;49.374;8.452;2023-08-21T12:52:12;33.44;99.99
13496;DHT22;6820;49.374;8.452;2023-08-21T12:56:13;33.52;99.99
13496;DHT22;6820;49.374;8.452;2023-08-21T13:00:15;33.26;99.99
13496;DHT22;6820;49.374;8.452;2023-08-21T13:04:18;33.05;99.99
13496;DHT22;6820;49.374;8.452;2023-08-21T13:08:20;32.95;99.99
13496;DHT22;6820;49.374;8.452;2023-08-21T13:12:22;32.81;99.99
13496;DHT22;6820;49.374;8.452;2023-08-21T13:16:24;32.78;99.99
13496;DHT22;6820;49.374;8.452;2023-08-21T13:20:25;33.34;99.99
13496;DHT22;6820;49.374;8.452;2023-08-21T13:24:27;33.92;99.99
13496;DHT22;6820;49.374;8.452;2023-08-21T13:28:29;34.37;99.99
13496;DHT22;6820;49.374;8.452;2023-08-21T13:32:32;34.78;99.99
13496;DHT22;6820;49.374;8.452;2023-08-21T13:36:34;35.15;99.99
13496;DHT22;6820;49.374;8.452;2023-08-21T13:40:35;35.34;99.99
13496;DHT22;6820;49.374;8.452;2023-08-21T13:44:37;35.50;99.99
13496;DHT22;6820;49.374;8.452;2023-08-21T13:48:39;35.59;99.99
13496;DHT22;6820;49.374;8.452;2023-08-21T13:52:41;35.61;99.99
13496;DHT22;6820;49.374;8.452;2023-08-21T13:56:43;35.87;99.99
13496;DHT22;6820;49.374;8.452;2023-08-21T14:00:44;35.89;99.99
13496;DHT22;6820;49.374;8.452;2023-08-21T14:04:46;36.05;99.99
13496;DHT22;6820;49.374;8.452;2023-08-21T14:08:48;36.35;99.99
13496;DHT22;6820;49.374;8.452;2023-08-21T14:12:49;36.59;99.99
13496;DHT22;6820;49.374;8.452;2023-08-21T14:16:52;36.57;99.99
13496;DHT22;6820;49.374;8.452;2023-08-21T14:20:54;36.11;99.99
13496;DHT22;6820;49.374;8.452;2023-08-21T14:24:55;35.49;99.99
13496;DHT22;6820;49.374;8.452;2023-08-21T14:28:57;35.00;99.99
13496;DHT22;6820;49.374;8.452;2023-08-21T14:32:59;34.88;99.99
13496;DHT22;6820;49.374;8.452;2023-08-21T14:37:01;34.90;99.99
13496;DHT22;6820;49.374;8.452;2023-08-21T14:41:05;35.43;99.99
13496;DHT22;6820;49.374;8.452;2023-08-21T14:45:07;35.74;99.99
13496;DHT22;6820;49.374;8.452;2023-08-21T14:49:09;36.11;99.99
13496;DHT22;6820;49.374;8.452;2023-08-21T17:01:51;35.39;99.99
13496;DHT22;6820;49.374;8.452;2023-08-21T17:05:53;35.31;99.99
13496;DHT22;6820;49.374;8.452;2023-08-21T17:09:55;34.95;99.99
13496;DHT22;6820;49.374;8.452;2023-08-21T17:13:56;34.75;99.99
13496;DHT22;6820;49.374;8.452;2023-08-21T17:26:52;34.45;99.99
13496;DHT22;6820;49.374;8.452;2023-08-21T17:30:54;34.38;99.99
13496;DHT22;6820;49.374;8.452;2023-08-21T17:34:56;34.26;99.99
13496;DHT22;6820;49.374;8.452;2023-08-21T17:38:58;34.12;99.99
13496;DHT22;6820;49.374;8.452;2023-08-21T17:42:59;33.96;99.99
13496;DHT22;6820;49.374;8.452;2023-08-21T17:47:01;33.82;99.99
13496;DHT22;6820;49.374;8.452;2023-08-21T17:51:02;33.71;99.99
13496;DHT22;6820;49.374;8.452;2023-08-21T17:55:06;33.60;99.99
13496;DHT22;6820;49.374;8.452;2023-08-21T17:59:08;33.47;99.99
13496;DHT22;6820;49.374;8.452;2023-08-21T18:03:10;33.33;99.99
13496;DHT22;6820;49.374;8.452;2023-08-21T18:07:11;33.17;99.99
13496;DHT22;6820;49.374;8.452;2023-08-21T18:11:13;33.06;99.99
13496;DHT22;6820;49.374;8.452;2023-08-21T18:15:15;32.96;99.99
13496;DHT22;6820;49.374;8.452;2023-08-21T18:19:17;32.84;99.99
13496;DHT22;6820;49.374;8.452;2023-08-21T18:23:22;32.71;99.99
13496;DHT22;6820;49.374;8.452;2023-08-21T18:27:25;32.58;99.99
13496;DHT22;6820;49.374;8.452;2023-08-21T18:31:27;32.46;99.99
13496;DHT22;6820;49.374;8.452;2023-08-21T18:35:29;32.40;99.99
13496;DHT22;6820;49.374;8.452;2023-08-21T18:39:30;32.29;99.99
13496;DHT22;6820;49.374;8.452;2023-08-21T18:43:32;32.19;99.99
13496;DHT22;6820;49.374;8.452;2023-08-21T18:47:34;32.12;99.99
13496;DHT22;6820;49.374;8.452;2023-08-21T18:51:36;32.03;99.99
13496;DHT22;6820;49.374;8.452;2023-08-21T18:55:45;31.97;99.99
13496;DHT22;6820;49.374;8.452;2023-08-21T18:59:48;31.90;99.99
13496;DHT22;6820;49.374;8.452;2023-08-21T19:03:51;31.82;99.99
13496;DHT22;6820;49.374;8.452;2023-08-21T19:07:54;31.74;99.99
13496;DHT22;6820;49.374;8.452;2023-08-21T19:11:56;31.67;99.99
13496;DHT22;6820;49.374;8.452;2023-08-21T19:15:57;31.60;99.99
13496;DHT22;6820;49.374;8.452;2023-08-21T19:20:00;31.54;99.99
13496;DHT22;6820;49.374;8.452;2023-08-21T19:24:04;31.50;99.99
13496;DHT22;6820;49.374;8.452;2023-08-21T19:28:06;31.41;99.99
13496;DHT22;6820;49.374;8.452;2023-08-21T19:32:07;31.35;99.99
13496;DHT22;6820;49.374;8.452;2023-08-21T19:36:12;31.27;99.99
13496;DHT22;6820;49.374;8.452;2023-08-21T19:40:14;31.19;99.99
13496;DHT22;6820;49.374;8.452;2023-08-21T19:44:16;31.12;99.99
13496;DHT22;6820;49.374;8.452;2023-08-21T19:48:18;31.05;99.99
13496;DHT22;6820;49.374;8.452;2023-08-21T19:52:19;30.98;99.99
13496;DHT22;6820;49.374;8.452;2023-08-21T19:56:21;30.94;99.99
13496;DHT22;6820;49.374;8.452;2023-08-21T20:00:23;30.88;99.99
13496;DHT22;6820;49.374;8.452;2023-08-21T20:04:24;30.81;99.99
13496;DHT22;6820;49.374;8.452;2023-08-21T20:08:26;30.76;99.99
13496;DHT22;6820;49.374;8.452;2023-08-21T20:12:28;30.70;99.99
13496;DHT22;6820;49.374;8.452;2023-08-21T20:16:29;30.61;99.99
13496;DHT22;6820;49.374;8.452;2023-08-21T20:20:31;30.49;99.99
13496;DHT22;6820;49.374;8.452;2023-08-21T20:24:33;30.34;99.99
13496;DHT22;6820;49.374;8.452;2023-08-21T20:28:35;30.26;99.99
13496;DHT22;6820;49.374;8.452;2023-08-21T20:32:36;30.15;99.99
13496;DHT22;6820;49.374;8.452;2023-08-21T20:36:38;30.08;99.99
13496;DHT22;6820;49.374;8.452;2023-08-21T20:40:40;30.07;99.99
13496;DHT22;6820;49.374;8.452;2023-08-21T20:44:43;30.03;99.99
13496;DHT22;6820;49.374;8.452;2023-08-21T20:48:44;30.04;99.99
13496;DHT22;6820;49.374;8.452;2023-08-21T20:52:46;30.06;99.99
13496;DHT22;6820;49.374;8.452;2023-08-21T20:56:48;30.03;99.99
13496;DHT22;6820;49.374;8.452;2023-08-21T21:00:50;30.01;99.99
13496;DHT22;6820;49.374;8.452;2023-08-21T21:04:52;29.99;99.99
13496;DHT22;6820;49.374;8.452;2023-08-21T21:08:55;29.89;99.99
13496;DHT22;6820;49.374;8.452;2023-08-21T21:12:56;29.82;99.99
13496;DHT22;6820;49.374;8.452;2023-08-21T21:16:58;29.76;99.99
13496;DHT22;6820;49.374;8.452;2023-08-21T21:21:00;29.67;99.99
13496;DHT22;6820;49.374;8.452;2023-08-21T21:25:02;29.57;99.99
13496;DHT22;6820;49.374;8.452;2023-08-21T21:29:05;29.55;99.99
13496;DHT22;6820;49.374;8.452;2023-08-21T21:33:07;29.57;99.99
13496;DHT22;6820;49.374;8.452;2023-08-21T21:37:08;29.55;99.99
13496;DHT22;6820;49.374;8.452;2023-08-21T21:41:10;29.55;99.99
13496;DHT22;6820;49.374;8.452;2023-08-21T21:45:12;29.51;99.99
13496;DHT22;6820;49.374;8.452;2023-08-21T21:49:13;29.45;99.99
13496;DHT22;6820;49.374;8.452;2023-08-21T21:53:15;29.39;99.99
13496;DHT22;6820;49.374;8.452;2023-08-21T21:57:16;29.32;99.99
13496;DHT22;6820;49.374;8.452;2023-08-21T22:01:18;29.17;99.99
13496;DHT22;6820;49.374;8.452;2023-08-21T22:05:20;29.10;99.99
13496;DHT22;6820;49.374;8.452;2023-08-21T22:09:22;29.07;99.99
13496;DHT22;6820;49.374;8.452;2023-08-21T22:13:24;28.98;99.99
13496;DHT22;6820;49.374;8.452;2023-08-21T22:17:25;28.88;99.99
13496;DHT22;6820;49.374;8.452;2023-08-21T22:21:27;28.74;99.99
13496;DHT22;6820;49.374;8.452;2023-08-21T22:25:29;28.62;99.99
13496;DHT22;6820;49.374;8.452;2023-08-21T22:29:33;28.55;99.99
13496;DHT22;6820;49.374;8.452;2023-08-21T22:33:35;28.45;99.99
13496;DHT22;6820;49.374;8.452;2023-08-21T22:37:36;28.32;99.99
13496;DHT22;6820;49.374;8.452;2023-08-21T22:41:38;28.21;99.99
13496;DHT22;6820;49.374;8.452;2023-08-21T22:45:40;28.08;99.99
13496;DHT22;6820;49.374;8.452;2023-08-21T22:49:42;27.99;99.99
13496;DHT22;6820;49.374;8.452;2023-08-21T22:53:44;27.96;99.99
13496;DHT22;6820;49.374;8.452;2023-08-21T22:57:45;27.88;99.99
13496;DHT22;6820;49.374;8.452;2023-08-21T23:01:48;27.90;99.99
13496;DHT22;6820;49.374;8.452;2023-08-21T23:05:51;27.86;99.99
13496;DHT22;6820;49.374;8.452;2023-08-21T23:09:54;27.78;99.99
13496;DHT22;6820;49.374;8.452;2023-08-21T23:13:55;27.76;99.99
13496;DHT22;6820;49.374;8.452;2023-08-21T23:17:57;27.77;99.99
13496;DHT22;6820;49.374;8.452;2023-08-21T23:21:59;27.71;99.99
13496;DHT22;6820;49.374;8.452;2023-08-21T23:26:01;27.59;99.99
13496;DHT22;6820;49.374;8.452;2023-08-21T23:30:03;27.46;99.99
13496;DHT22;6820;49.374;8.452;2023-08-21T23:34:05;27.40;99.99
13496;DHT22;6820;49.374;8.452;2023-08-21T23:38:07;27.42;99.99
13496;DHT22;6820;49.374;8.452;2023-08-21T23:42:09;27.34;99.99
13496;DHT22;6820;49.374;8.452;2023-08-21T23:46:10;27.27;99.99
13496;DHT22;6820;49.374;8.452;2023-08-21T23:50:12;27.24;99.99
13496;DHT22;6820;49.374;8.452;2023-08-21T23:54:14;27.23;99.99
13496;DHT22;6820;49.374;8.452;2023-08-21T23:58:15;27.23;99.99
